Time;durP1;ratioP1;P1;durP2;ratioP2;P2;SDS_P1;SDS_P2;PMS_P1;PMS_P2;Temp;Humidity;BMP_temperature;BMP_pressure;BME280_temperature;BME280_humidity;BME280_pressure;Samples;Min_cycle;Max_cycle;Signal;HPM_P1;HPM_P2
2021/07/08 00:00:56;;;;;;;2.70;0.80;;;20.60;99.90;;;;;;6055055;29;20201;-69
2021/07/08 00:03:59;;;;;;;1.13;0.70;;;20.50;99.90;;;;;;6061894;29;20292;-70
2021/07/08 00:07:01;;;;;;;0.60;0.60;;;20.50;99.90;;;;;;6054038;29;20208;-70
2021/07/08 00:10:19;;;;;;;1.10;0.70;;;20.50;99.90;;;;;;6052523;29;20327;-69
2021/07/08 00:13:27;;;;;;;0.60;0.60;;;20.40;99.90;;;;;;6054110;29;20273;-70
2021/07/08 00:16:29;;;;;;;0.93;0.70;;;20.40;99.90;;;;;;6052521;29;20680;-69
2021/07/08 00:19:32;;;;;;;2.03;0.83;;;20.30;99.90;;;;;;6052730;29;20194;-70
2021/07/08 00:22:35;;;;;;;0.97;0.77;;;20.30;99.90;;;;;;6054121;29;20198;-70
2021/07/08 00:25:37;;;;;;;1.80;0.50;;;20.30;99.90;;;;;;6067556;29;20215;-69
2021/07/08 00:28:39;;;;;;;3.60;0.67;;;20.30;99.90;;;;;;6053809;29;20233;-69
2021/07/08 00:31:42;;;;;;;0.47;0.47;;;20.30;99.90;;;;;;6060224;29;20219;-69
2021/07/08 00:34:44;;;;;;;1.73;0.60;;;20.30;99.90;;;;;;6077847;29;20197;-69
2021/07/08 00:37:46;;;;;;;0.63;0.63;;;20.30;99.90;;;;;;6053187;29;20285;-69
2021/07/08 00:40:48;;;;;;;2.07;0.80;;;20.20;99.90;;;;;;6052611;29;20566;-69
2021/07/08 00:43:52;;;;;;;1.43;0.80;;;20.10;99.90;;;;;;6055201;29;20340;-69
2021/07/08 00:46:54;;;;;;;1.33;0.80;;;20.10;99.90;;;;;;6057594;29;20567;-69
2021/07/08 00:49:56;;;;;;;0.70;0.70;;;19.90;99.90;;;;;;6058011;29;20273;-69
2021/07/08 00:52:59;;;;;;;0.57;0.57;;;19.80;99.90;;;;;;6057563;29;20397;-69
2021/07/08 00:56:03;;;;;;;0.80;0.80;;;19.70;99.90;;;;;;6056490;29;20193;-69
2021/07/08 00:59:08;;;;;;;0.70;0.70;;;19.60;99.90;;;;;;6057774;29;20202;-69
2021/07/08 01:02:15;;;;;;;1.10;0.80;;;19.60;99.90;;;;;;6067441;29;20277;-69
2021/07/08 01:05:19;;;;;;;0.50;0.50;;;19.60;99.90;;;;;;6072101;29;20284;-69
2021/07/08 01:08:22;;;;;;;0.70;0.50;;;19.50;99.90;;;;;;6057021;29;20276;-70
2021/07/08 01:11:25;;;;;;;0.90;0.60;;;19.50;99.90;;;;;;6056290;29;20213;-69
2021/07/08 01:14:27;;;;;;;1.30;0.90;;;19.40;99.90;;;;;;6057407;29;20705;-70
2021/07/08 01:17:29;;;;;;;0.53;0.50;;;19.40;99.90;;;;;;6055778;29;20213;-69
2021/07/08 01:20:34;;;;;;;1.33;0.73;;;19.40;99.90;;;;;;6056127;29;20287;-69
2021/07/08 01:23:36;;;;;;;0.83;0.73;;;19.40;99.90;;;;;;6056503;29;20229;-69
2021/07/08 01:26:40;;;;;;;0.73;0.70;;;19.30;99.90;;;;;;6057687;29;20212;-70
2021/07/08 01:29:42;;;;;;;1.10;0.70;;;19.40;99.90;;;;;;6056572;29;20197;-69
2021/07/08 01:32:45;;;;;;;1.43;0.90;;;19.40;99.90;;;;;;6063887;29;20315;-70
2021/07/08 01:35:48;;;;;;;1.00;0.73;;;19.50;99.90;;;;;;6055551;29;20666;-69
2021/07/08 01:38:51;;;;;;;4.13;0.80;;;19.60;99.90;;;;;;6056461;29;20318;-69
2021/07/08 01:41:53;;;;;;;0.70;0.70;;;19.70;99.90;;;;;;6056662;29;20202;-70
2021/07/08 01:44:55;;;;;;;1.63;0.80;;;19.70;99.90;;;;;;6054813;29;20765;-70
2021/07/08 01:47:58;;;;;;;0.90;0.70;;;19.70;99.90;;;;;;6056528;29;20229;-69
2021/07/08 01:51:04;;;;;;;0.60;0.60;;;19.60;99.90;;;;;;6056417;29;20236;-71
2021/07/08 01:54:10;;;;;;;0.50;0.50;;;19.60;99.90;;;;;;6054501;29;20193;-70
2021/07/08 01:57:12;;;;;;;1.50;0.70;;;19.60;99.90;;;;;;6056549;29;20204;-69
2021/07/08 02:00:14;;;;;;;0.80;0.70;;;19.50;99.90;;;;;;6056006;29;20228;-70
2021/07/08 02:03:17;;;;;;;0.60;0.60;;;19.50;99.90;;;;;;6071935;29;20205;-70
2021/07/08 02:06:20;;;;;;;0.77;0.70;;;19.40;99.90;;;;;;6054484;29;20209;-71
2021/07/08 02:09:22;;;;;;;2.13;0.80;;;19.40;99.90;;;;;;6056196;29;20238;-70
2021/07/08 02:12:24;;;;;;;1.07;0.80;;;19.40;99.90;;;;;;6055920;29;20305;-70
2021/07/08 02:15:26;;;;;;;1.80;0.60;;;19.40;99.90;;;;;;6054448;29;20551;-71
2021/07/08 02:18:28;;;;;;;0.70;0.60;;;19.40;99.90;;;;;;6055776;29;20200;-70
2021/07/08 02:21:31;;;;;;;0.83;0.80;;;19.40;99.90;;;;;;6054253;29;20737;-70
2021/07/08 02:24:33;;;;;;;1.00;0.80;;;19.40;99.90;;;;;;6055960;29;20205;-70
2021/07/08 02:27:37;;;;;;;2.50;0.70;;;19.30;99.90;;;;;;6055718;29;20208;-70
2021/07/08 02:30:39;;;;;;;0.90;0.57;;;19.30;99.90;;;;;;6055317;29;20296;-71
2021/07/08 02:33:42;;;;;;;0.83;0.73;;;19.30;99.90;;;;;;6077895;29;20193;-69
2021/07/08 02:36:44;;;;;;;1.80;0.87;;;19.30;99.90;;;;;;6057509;29;20662;-70
2021/07/08 02:39:46;;;;;;;1.70;0.77;;;19.20;99.90;;;;;;6054292;29;20686;-69
2021/07/08 02:42:52;;;;;;;1.73;0.93;;;19.10;99.90;;;;;;6055367;29;20272;-69
2021/07/08 02:45:55;;;;;;;1.27;1.17;;;19.10;99.90;;;;;;6053463;29;20319;-69
2021/07/08 02:48:58;;;;;;;0.80;0.80;;;19.00;99.90;;;;;;6055287;29;20193;-70
2021/07/08 02:52:00;;;;;;;0.80;0.80;;;19.00;99.90;;;;;;6069036;29;20209;-70
2021/07/08 02:55:04;;;;;;;0.87;0.80;;;18.90;99.90;;;;;;6055216;29;20677;-70
2021/07/08 02:58:07;;;;;;;1.33;0.90;;;18.80;99.90;;;;;;6053716;29;20198;-70
2021/07/08 03:01:09;;;;;;;1.63;1.03;;;18.80;99.90;;;;;;6056452;29;20213;-70
2021/07/08 03:04:11;;;;;;;1.87;0.90;;;18.80;99.90;;;;;;6057802;29;20230;-71
2021/07/08 03:07:14;;;;;;;1.77;1.20;;;18.70;99.90;;;;;;6052600;29;20197;-70
2021/07/08 03:10:19;;;;;;;1.77;1.00;;;18.70;99.90;;;;;;6053446;29;20685;-69
2021/07/08 03:13:22;;;;;;;1.10;0.90;;;18.70;99.90;;;;;;6054443;29;20669;-69
2021/07/08 03:16:24;;;;;;;0.90;0.90;;;18.70;99.90;;;;;;6053357;29;20208;-69
2021/07/08 03:19:27;;;;;;;1.03;0.93;;;18.80;99.90;;;;;;6054631;29;20196;-69
2021/07/08 03:22:29;;;;;;;0.90;0.80;;;18.80;99.90;;;;;;6054366;29;20615;-70
2021/07/08 03:25:32;;;;;;;1.80;1.20;;;18.80;99.90;;;;;;6053627;29;20197;-70
2021/07/08 03:28:34;;;;;;;1.10;0.90;;;18.70;99.90;;;;;;6052742;29;20806;-69
2021/07/08 03:31:37;;;;;;;1.00;0.80;;;18.70;99.90;;;;;;6060319;29;20778;-68
2021/07/08 03:34:40;;;;;;;1.10;0.97;;;18.60;99.90;;;;;;6061718;29;20228;-70
2021/07/08 03:37:44;;;;;;;1.30;1.10;;;18.60;99.90;;;;;;6052385;29;20220;-70
2021/07/08 03:40:46;;;;;;;2.60;1.10;;;18.50;99.90;;;;;;6054030;29;20867;-69
2021/07/08 03:43:48;;;;;;;1.10;1.00;;;18.50;99.90;;;;;;6052019;29;20237;-69
2021/07/08 03:46:50;;;;;;;1.30;1.03;;;18.40;99.90;;;;;;6052554;29;20541;-69
2021/07/08 03:49:53;;;;;;;1.70;1.00;;;18.50;99.90;;;;;;6052481;29;20626;-70
2021/07/08 03:52:56;;;;;;;3.50;1.20;;;18.50;99.90;;;;;;6054156;29;20208;-69
2021/07/08 03:55:58;;;;;;;1.57;1.10;;;18.50;99.90;;;;;;6068090;29;20202;-69
2021/07/08 03:59:00;;;;;;;1.10;0.90;;;18.50;99.90;;;;;;6053496;29;20193;-70
2021/07/08 04:02:03;;;;;;;2.07;0.93;;;18.50;99.90;;;;;;6062155;29;20204;-70
2021/07/08 04:05:06;;;;;;;1.73;1.00;;;18.60;99.90;;;;;;6065395;29;20654;-70
2021/07/08 04:08:09;;;;;;;2.67;1.10;;;18.60;99.90;;;;;;6053361;29;20658;-70
2021/07/08 04:11:11;;;;;;;1.63;0.83;;;18.60;99.90;;;;;;6053538;29;20345;-70
2021/07/08 04:14:14;;;;;;;1.37;0.90;;;18.60;99.90;;;;;;6053217;29;20209;-70
2021/07/08 04:17:16;;;;;;;2.50;1.07;;;18.60;99.90;;;;;;6053388;29;20241;-70
2021/07/08 04:20:20;;;;;;;2.47;1.27;;;18.50;99.90;;;;;;6058049;29;20692;-70
2021/07/08 04:23:23;;;;;;;1.93;1.13;;;18.50;99.90;;;;;;6057046;29;20201;-69
2021/07/08 04:26:25;;;;;;;1.07;0.90;;;18.50;99.90;;;;;;6056903;29;20201;-70
2021/07/08 04:29:27;;;;;;;3.43;1.10;;;18.50;99.90;;;;;;6057563;29;20206;-70
2021/07/08 04:32:29;;;;;;;1.07;0.90;;;18.50;99.90;;;;;;6061716;29;20706;-69
2021/07/08 04:35:39;;;;;;;1.10;1.00;;;18.60;99.90;;;;;;6057429;29;20192;-70
2021/07/08 04:38:45;;;;;;;1.00;0.90;;;18.60;99.90;;;;;;6057736;29;20182;-70
2021/07/08 04:41:47;;;;;;;1.00;0.90;;;18.60;99.90;;;;;;6057097;29;20182;-69
2021/07/08 04:44:50;;;;;;;1.30;1.00;;;18.60;99.90;;;;;;6054253;29;20233;-70
2021/07/08 04:47:52;;;;;;;1.30;1.03;;;18.90;99.90;;;;;;6056224;29;20292;-70
2021/07/08 04:50:55;;;;;;;1.90;0.93;;;19.10;99.90;;;;;;6057099;29;20217;-71
2021/07/08 04:53:57;;;;;;;1.07;0.97;;;19.20;99.90;;;;;;6071660;29;20201;-70
2021/07/08 04:56:59;;;;;;;1.00;0.83;;;19.30;99.90;;;;;;6055637;29;20281;-71
2021/07/08 05:00:06;;;;;;;1.40;1.00;;;19.40;99.90;;;;;;6057225;29;20209;-70
2021/07/08 05:03:10;;;;;;;1.23;1.13;;;19.50;99.90;;;;;;6067543;29;20208;-71
2021/07/08 05:06:12;;;;;;;1.57;1.20;;;19.60;99.90;;;;;;6055421;29;20300;-70
2021/07/08 05:09:14;;;;;;;1.63;1.10;;;19.70;99.90;;;;;;6057199;29;20565;-71
2021/07/08 05:12:16;;;;;;;2.90;1.50;;;19.80;99.90;;;;;;6056659;29;20708;-70
2021/07/08 05:15:19;;;;;;;1.40;1.30;;;19.90;99.90;;;;;;6057304;29;20385;-71
2021/07/08 05:18:22;;;;;;;2.17;1.30;;;20.00;99.90;;;;;;6056821;29;20202;-70
2021/07/08 05:21:24;;;;;;;1.30;1.20;;;20.10;99.90;;;;;;6056464;29;20273;-71
2021/07/08 05:24:27;;;;;;;1.50;1.40;;;20.10;99.90;;;;;;6055237;29;20700;-70
2021/07/08 05:27:32;;;;;;;2.73;1.60;;;20.30;99.90;;;;;;6056173;29;20692;-70
2021/07/08 05:30:34;;;;;;;1.50;1.33;;;20.40;99.90;;;;;;6055657;29;20276;-70
2021/07/08 05:33:36;;;;;;;3.20;1.37;;;20.50;99.90;;;;;;6075815;29;20201;-70
2021/07/08 05:36:38;;;;;;;1.43;1.33;;;20.50;99.90;;;;;;6055485;29;21406;-65
2021/07/08 05:39:41;;;;;;;1.70;1.40;;;20.50;99.90;;;;;;6055444;29;20212;-70
2021/07/08 05:42:43;;;;;;;1.33;1.20;;;20.50;99.90;;;;;;6054800;29;20232;-74
2021/07/08 05:45:45;;;;;;;1.40;1.30;;;20.60;99.90;;;;;;6056197;29;20237;-71
2021/07/08 05:48:47;;;;;;;3.77;1.40;;;20.60;99.90;;;;;;6055922;29;20284;-68
2021/07/08 05:51:50;;;;;;;2.10;1.40;;;20.60;99.90;;;;;;6056075;29;20246;-65
2021/07/08 05:54:52;;;;;;;2.20;1.43;;;20.60;99.90;;;;;;6056202;29;20190;-67
2021/07/08 05:57:55;;;;;;;2.27;1.87;;;20.60;99.90;;;;;;6055329;29;20267;-69
2021/07/08 06:00:58;;;;;;;2.63;1.53;;;20.60;99.90;;;;;;6055831;29;20651;-70
2021/07/08 06:04:00;;;;;;;2.87;1.57;;;20.50;99.90;;;;;;6054341;29;20273;-71
2021/07/08 06:07:03;;;;;;;1.50;1.40;;;20.50;99.90;;;;;;6054530;29;20205;-70
2021/07/08 06:10:07;;;;;;;2.10;1.50;;;20.60;99.90;;;;;;6054521;29;20211;-70
2021/07/08 06:13:10;;;;;;;2.20;1.60;;;20.70;99.90;;;;;;6053962;29;20304;-70
2021/07/08 06:16:13;;;;;;;1.67;1.57;;;20.70;99.90;;;;;;6055565;29;20666;-70
2021/07/08 06:19:16;;;;;;;1.90;1.80;;;20.70;99.90;;;;;;6055410;29;20201;-70
2021/07/08 06:22:18;;;;;;;1.70;1.60;;;20.70;99.90;;;;;;6055895;29;20200;-70
2021/07/08 06:25:20;;;;;;;2.30;2.10;;;20.80;99.90;;;;;;6053936;29;20207;-71
2021/07/08 06:28:23;;;;;;;1.97;1.87;;;20.90;99.90;;;;;;6055918;29;20657;-71
2021/07/08 06:31:25;;;;;;;3.37;2.63;;;20.90;99.90;;;;;;6060205;29;20381;-70
2021/07/08 06:34:27;;;;;;;2.50;2.30;;;21.00;99.90;;;;;;6058642;29;20228;-70
2021/07/08 06:37:29;;;;;;;2.60;2.40;;;21.20;99.90;;;;;;6055051;29;20677;-70
2021/07/08 06:40:32;;;;;;;3.20;2.80;;;21.30;99.90;;;;;;6052332;29;20209;-70
2021/07/08 06:43:34;;;;;;;3.40;3.10;;;21.60;99.90;;;;;;6054844;29;20361;-70
2021/07/08 06:46:36;;;;;;;4.30;3.20;;;21.80;99.90;;;;;;6053549;29;20252;-70
2021/07/08 06:49:39;;;;;;;3.40;3.10;;;22.00;99.90;;;;;;6053598;29;20211;-70
2021/07/08 06:52:42;;;;;;;3.60;3.30;;;22.30;99.90;;;;;;6053879;29;20221;-70
2021/07/08 06:55:45;;;;;;;3.03;2.80;;;22.60;99.90;;;;;;6054474;29;20186;-70
2021/07/08 06:58:47;;;;;;;3.30;3.00;;;22.80;99.90;;;;;;6054760;29;20201;-67
2021/07/08 07:01:49;;;;;;;3.23;2.93;;;23.10;99.90;;;;;;6062466;29;20530;-69
2021/07/08 07:04:52;;;;;;;3.50;2.70;;;23.40;99.90;;;;;;6046931;29;20698;-69
2021/07/08 07:07:55;;;;;;;4.13;2.63;;;23.70;99.90;;;;;;6054272;29;20205;-70
2021/07/08 07:10:57;;;;;;;3.77;2.97;;;23.90;99.90;;;;;;6054012;29;20209;-70
2021/07/08 07:14:00;;;;;;;3.17;2.87;;;24.20;99.90;;;;;;6054264;29;20284;-70
2021/07/08 07:17:03;;;;;;;5.83;2.17;;;24.50;99.90;;;;;;6053223;29;20550;-70
2021/07/08 07:20:07;;;;;;;2.63;2.40;;;24.70;99.90;;;;;;6052840;29;20208;-71
2021/07/08 07:23:10;;;;;;;2.50;2.30;;;24.90;99.90;;;;;;6053025;29;20209;-70
2021/07/08 07:26:13;;;;;;;2.80;2.60;;;25.10;99.90;;;;;;6052498;29;20204;-71
2021/07/08 07:29:15;;;;;;;2.97;2.77;;;25.40;99.90;;;;;;6068340;29;20220;-70
2021/07/08 07:32:17;;;;;;;3.20;2.97;;;25.60;98.70;;;;;;6064101;29;20221;-71
2021/07/08 07:35:20;;;;;;;2.80;2.60;;;25.80;98.40;;;;;;6082478;29;20645;-71
2021/07/08 07:38:22;;;;;;;2.42;2.22;;;26.00;98.00;;;;;;6053819;29;20189;-71
2021/07/08 07:41:25;;;;;;;2.75;2.53;;;26.30;97.40;;;;;;6053753;29;20726;-70
2021/07/08 07:44:27;;;;;;;2.70;2.50;;;26.70;97.00;;;;;;6053574;29;20328;-70
2021/07/08 07:47:29;;;;;;;4.55;3.13;;;27.10;96.10;;;;;;6052061;29;20205;-70
2021/07/08 07:50:32;;;;;;;3.63;3.30;;;27.30;94.60;;;;;;6068230;29;20604;-70
2021/07/08 07:53:34;;;;;;;5.93;3.85;;;27.20;94.30;;;;;;6053240;29;20561;-71
2021/07/08 07:56:37;;;;;;;3.55;3.20;;;27.40;93.40;;;;;;6053273;29;20975;-70
2021/07/08 07:59:39;;;;;;;3.33;3.03;;;27.70;93.60;;;;;;6052537;29;20637;-70
2021/07/08 08:02:41;;;;;;;3.35;3.05;;;28.00;92.20;;;;;;6060051;29;20204;-70
2021/07/08 08:05:54;;;;;;;3.92;3.08;;;28.10;91.90;;;;;;6052580;29;20738;-70
2021/07/08 08:08:56;;;;;;;3.50;3.20;;;28.40;91.20;;;;;;6052249;29;20178;-70
2021/07/08 08:11:58;;;;;;;3.72;3.05;;;28.60;90.70;;;;;;6052601;29;20228;-70
2021/07/08 08:15:09;;;;;;;4.63;3.22;;;28.80;89.40;;;;;;6053554;29;20197;-70
2021/07/08 08:18:11;;;;;;;3.17;2.83;;;28.90;87.50;;;;;;6051671;29;20272;-70
2021/07/08 08:21:14;;;;;;;3.63;3.00;;;29.10;89.50;;;;;;6052264;29;20209;-70
2021/07/08 08:24:16;;;;;;;3.60;2.55;;;29.40;86.50;;;;;;6052838;29;20566;-71
2021/07/08 08:27:19;;;;;;;4.60;3.42;;;29.60;85.30;;;;;;6052276;29;20197;-70
2021/07/08 08:30:21;;;;;;;3.03;2.83;;;29.80;82.50;;;;;;6036831;29;20205;-70
2021/07/08 08:33:23;;;;;;;3.53;3.15;;;30.00;82.40;;;;;;6067782;29;20209;-69
2021/07/08 08:36:25;;;;;;;3.40;3.10;;;30.30;79.50;;;;;;6052099;29;20204;-70
2021/07/08 08:39:28;;;;;;;2.97;2.78;;;30.40;78.70;;;;;;6051970;29;20271;-70
2021/07/08 08:42:31;;;;;;;4.53;3.35;;;30.60;78.10;;;;;;6052147;29;20221;-70
2021/07/08 08:45:33;;;;;;;3.40;3.10;;;30.80;75.80;;;;;;6051224;29;20749;-70
2021/07/08 08:48:35;;;;;;;7.63;3.63;;;30.60;74.70;;;;;;6052805;29;20201;-72
2021/07/08 08:51:38;;;;;;;4.68;3.33;;;30.80;72.80;;;;;;6052994;29;20248;-70
2021/07/08 08:54:42;;;;;;;3.95;3.65;;;30.40;72.40;;;;;;6052867;29;20186;-70
2021/07/08 08:57:47;;;;;;;3.72;3.42;;;30.60;73.90;;;;;;6053159;29;20197;-70
2021/07/08 09:00:55;;;;;;;4.35;3.70;;;30.40;72.60;;;;;;6051952;29;20201;-70
2021/07/08 09:03:58;;;;;;;3.25;2.95;;;30.50;73.40;;;;;;6076469;29;20189;-70
2021/07/08 09:07:19;;;;;;;4.05;3.55;;;30.60;72.60;;;;;;6057349;29;20555;-70
2021/07/08 09:10:22;;;;;;;5.25;3.55;;;30.80;70.80;;;;;;6055589;29;20329;-70
2021/07/08 09:13:24;;;;;;;4.45;3.95;;;31.00;70.50;;;;;;6055848;29;20225;-71
2021/07/08 09:16:34;;;;;;;3.67;3.38;;;31.20;71.30;;;;;;6056648;29;20220;-71
2021/07/08 09:19:39;;;;;;;3.50;3.05;;;31.20;70.30;;;;;;6056831;29;20190;-70
2021/07/08 09:22:42;;;;;;;4.75;3.40;;;31.20;69.60;;;;;;6056995;29;20213;-71
2021/07/08 09:25:46;;;;;;;5.40;3.40;;;31.40;68.90;;;;;;6055196;29;20570;-70
2021/07/08 09:28:48;;;;;;;4.07;3.70;;;31.70;69.40;;;;;;6056930;29;20256;-70
2021/07/08 09:32:00;;;;;;;5.22;3.40;;;32.10;66.70;;;;;;6060687;29;20212;-70
2021/07/08 09:35:05;;;;;;;3.67;3.38;;;32.00;64.70;;;;;;6056733;29;20190;-70
2021/07/08 09:38:23;;;;;;;3.97;3.30;;;31.90;66.60;;;;;;6055081;29;20202;-70
2021/07/08 09:41:28;;;;;;;4.00;2.70;;;32.00;63.90;;;;;;6032433;29;20640;-70
2021/07/08 09:44:31;;;;;;;5.07;3.47;;;32.50;65.60;;;;;;6054734;29;20237;-70
2021/07/08 09:47:34;;;;;;;4.22;3.80;;;33.00;64.10;;;;;;6056003;29;20549;-71
2021/07/08 09:50:38;;;;;;;4.22;3.08;;;33.40;63.60;;;;;;6056325;29;20578;-70
2021/07/08 09:53:50;;;;;;;4.38;3.53;;;33.50;60.80;;;;;;6054614;29;20336;-70
2021/07/08 09:56:56;;;;;;;3.60;3.35;;;33.80;61.80;;;;;;6055076;29;20293;-70
2021/07/08 09:59:59;;;;;;;4.70;3.30;;;34.10;59.30;;;;;;6070542;29;20267;-70
2021/07/08 10:03:03;;;;;;;3.90;3.50;;;34.00;59.70;;;;;;6067384;29;20664;-68
2021/07/08 10:06:06;;;;;;;3.78;3.45;;;34.30;59.40;;;;;;6054572;29;20303;-70
2021/07/08 10:09:08;;;;;;;6.45;4.75;;;34.30;57.60;;;;;;6054150;29;20206;-70
2021/07/08 10:12:10;;;;;;;5.32;3.47;;;34.40;58.20;;;;;;6055907;29;20288;-69
2021/07/08 10:15:14;;;;;;;4.13;3.10;;;34.30;57.30;;;;;;6054040;29;20208;-70
2021/07/08 10:18:17;;;;;;;4.80;3.63;;;34.40;57.30;;;;;;6054374;29;20200;-70
2021/07/08 10:21:19;;;;;;;3.60;3.30;;;34.60;57.30;;;;;;6054500;29;20212;-70
2021/07/08 10:24:22;;;;;;;6.90;3.67;;;34.70;56.30;;;;;;6055100;29;20198;-70
2021/07/08 10:27:24;;;;;;;3.72;3.42;;;35.00;57.00;;;;;;6054324;29;20213;-70
2021/07/08 10:30:28;;;;;;;5.45;4.07;;;35.50;56.00;;;;;;6055147;29;20333;-70
2021/07/08 10:33:30;;;;;;;3.65;3.00;;;35.60;55.30;;;;;;6073768;29;20228;-70
2021/07/08 10:36:33;;;;;;;4.45;3.70;;;35.60;55.10;;;;;;6055290;29;20333;-70
2021/07/08 10:39:43;;;;;;;7.00;4.13;;;35.70;53.10;;;;;;6054765;29;20200;-70
2021/07/08 10:42:49;;;;;;;3.63;3.33;;;35.40;54.70;;;;;;6055210;29;20221;-70
2021/07/08 10:46:01;;;;;;;5.15;4.18;;;35.60;56.40;;;;;;6053366;29;20252;-69
2021/07/08 10:49:14;;;;;;;3.50;3.20;;;35.80;53.90;;;;;;6053843;29;20630;-71
2021/07/08 10:52:39;;;;;;;4.80;3.60;;;36.00;53.90;;;;;;6053416;29;20216;-70
2021/07/08 10:55:44;;;;;;;4.47;3.58;;;36.60;53.60;;;;;;6055240;29;20190;-72
2021/07/08 10:58:49;;;;;;;4.43;3.38;;;36.50;51.10;;;;;;6055020;29;20224;-71
2021/07/08 11:01:52;;;;;;;4.05;3.75;;;36.60;50.60;;;;;;6054951;29;20272;-71
2021/07/08 11:04:55;;;;;;;3.95;3.55;;;36.50;50.80;;;;;;6055043;29;20190;-70
2021/07/08 11:07:57;;;;;;;4.22;3.17;;;36.80;52.00;;;;;;6054317;29;20598;-71
2021/07/08 11:10:59;;;;;;;9.65;3.33;;;36.80;50.20;;;;;;6054963;29;20194;-72
2021/07/08 11:14:07;;;;;;;3.72;3.35;;;36.80;49.80;;;;;;6054330;29;20213;-70
2021/07/08 11:17:11;;;;;;;6.70;3.70;;;36.40;50.70;;;;;;6054564;29;20201;-71
2021/07/08 11:20:29;;;;;;;7.13;3.55;;;36.40;50.10;;;;;;6053543;29;20326;-71
2021/07/08 11:23:42;;;;;;;7.43;3.40;;;36.50;49.80;;;;;;6054178;29;20205;-70
2021/07/08 11:26:56;;;;;;;4.55;3.30;;;36.80;50.50;;;;;;6052320;29;20205;-71
2021/07/08 11:30:13;;;;;;;5.47;3.65;;;37.30;49.20;;;;;;6052455;29;20338;-70
2021/07/08 11:33:20;;;;;;;7.82;3.92;;;37.30;50.10;;;;;;6061521;29;20214;-71
2021/07/08 11:36:24;;;;;;;3.10;2.80;;;37.70;49.00;;;;;;6052676;29;20563;-70
2021/07/08 11:39:30;;;;;;;4.95;3.33;;;37.70;48.50;;;;;;6052974;29;20533;-70
2021/07/08 11:42:38;;;;;;;5.10;2.85;;;37.90;48.40;;;;;;6054172;29;20214;-70
2021/07/08 11:45:41;;;;;;;4.45;3.22;;;38.00;47.60;;;;;;6053487;29;20296;-71
2021/07/08 11:48:46;;;;;;;4.47;3.40;;;38.30;48.10;;;;;;6052814;29;20202;-71
2021/07/08 11:51:49;;;;;;;5.85;3.50;;;38.40;46.70;;;;;;6053612;29;20205;-70
2021/07/08 11:54:56;;;;;;;3.70;3.40;;;38.40;47.40;;;;;;6054333;29;20209;-71
2021/07/08 11:58:00;;;;;;;5.03;3.88;;;38.50;46.20;;;;;;6053969;29;20198;-71
2021/07/08 12:01:12;;;;;;;6.03;4.60;;;38.70;46.80;;;;;;6055340;29;20649;-70
2021/07/08 12:04:21;;;;;;;4.70;4.22;;;38.40;45.40;;;;;;6066682;29;20246;-71
2021/07/08 12:07:24;;;;;;;5.95;4.55;;;38.40;45.80;;;;;;6053504;29;20562;-72
2021/07/08 12:10:39;;;;;;;8.88;4.60;;;38.60;44.70;;;;;;6037320;29;20210;-71
2021/07/08 12:13:57;;;;;;;6.07;5.47;;;38.80;43.20;;;;;;6037111;29;20242;-70
2021/07/08 12:17:00;;;;;;;6.85;5.65;;;38.60;41.50;;;;;;6053919;29;20193;-71
2021/07/08 12:20:07;;;;;;;7.20;6.50;;;38.30;42.00;;;;;;6052948;29;20197;-71
2021/07/08 12:23:11;;;;;;;10.38;6.50;;;37.50;41.40;;;;;;6052408;29;20270;-72
2021/07/08 12:26:25;;;;;;;9.48;6.10;;;36.90;42.40;;;;;;6052703;29;20259;-71
2021/07/08 12:29:37;;;;;;;10.23;6.03;;;36.50;43.60;;;;;;6053079;29;20201;-70
2021/07/08 12:32:39;;;;;;;10.45;5.90;;;36.30;42.80;;;;;;6067075;29;20548;-70
2021/07/08 12:35:44;;;;;;;7.18;5.85;;;36.40;43.00;;;;;;6060503;29;20449;-70
2021/07/08 12:38:47;;;;;;;7.78;6.97;;;37.00;43.30;;;;;;6055380;29;20273;-71
2021/07/08 12:41:49;;;;;;;6.82;5.95;;;37.40;41.90;;;;;;6056592;29;20342;-71
2021/07/08 12:44:53;;;;;;;8.70;6.38;;;37.40;41.60;;;;;;6057385;29;20225;-70
2021/07/08 12:47:56;;;;;;;6.30;5.70;;;37.50;41.40;;;;;;6057667;29;20702;-71
2021/07/08 12:50:59;;;;;;;9.52;6.65;;;37.80;41.00;;;;;;6056491;29;20523;-71
2021/07/08 12:54:03;;;;;;;7.30;6.45;;;37.80;41.70;;;;;;6056504;29;20216;-71
2021/07/08 12:57:13;;;;;;;9.55;7.20;;;37.50;41.30;;;;;;6056538;29;20190;-71
2021/07/08 13:00:16;;;;;;;7.80;6.40;;;37.40;41.60;;;;;;6055902;29;20200;-71
2021/07/08 13:03:24;;;;;;;6.32;5.78;;;37.20;41.80;;;;;;6061229;29;20212;-72
2021/07/08 13:06:29;;;;;;;8.23;6.65;;;37.00;41.80;;;;;;6056924;29;20284;-71
2021/07/08 13:09:32;;;;;;;7.55;6.30;;;36.90;42.20;;;;;;6055926;29;20212;-71
2021/07/08 13:12:35;;;;;;;7.40;6.60;;;37.10;42.30;;;;;;6056580;29;20273;-70
2021/07/08 13:15:44;;;;;;;6.60;6.00;;;37.20;41.30;;;;;;6057176;29;20264;-71
2021/07/08 13:18:48;;;;;;;7.90;6.43;;;37.40;41.20;;;;;;6057087;29;20257;-71
2021/07/08 13:21:50;;;;;;;6.55;6.05;;;37.80;40.60;;;;;;6056662;29;20555;-72
2021/07/08 13:24:52;;;;;;;7.25;6.00;;;38.00;41.10;;;;;;6040404;29;20515;-72
2021/07/08 13:27:55;;;;;;;7.90;6.25;;;37.80;41.20;;;;;;6056176;29;20730;-71
2021/07/08 13:31:12;;;;;;;6.22;5.63;;;37.80;41.00;;;;;;6058256;29;20536;-71
2021/07/08 13:34:25;;;;;;;7.75;6.20;;;38.20;40.10;;;;;;6064429;29;20701;-71
2021/07/08 13:37:28;;;;;;;6.35;5.75;;;38.60;41.20;;;;;;6055069;29;20209;-70
2021/07/08 13:40:31;;;;;;;6.63;5.85;;;38.70;39.40;;;;;;6056381;29;20288;-72
2021/07/08 13:43:34;;;;;;;7.18;6.32;;;38.80;40.20;;;;;;6055994;29;20284;-71
2021/07/08 13:46:39;;;;;;;7.00;5.20;;;39.10;39.70;;;;;;6056316;29;20373;-71
2021/07/08 13:49:42;;;;;;;5.05;4.65;;;38.80;39.30;;;;;;6055569;29;20198;-70
2021/07/08 13:52:45;;;;;;;5.25;4.43;;;38.20;38.40;;;;;;6054983;29;20312;-70
2021/07/08 13:55:47;;;;;;;8.18;4.80;;;38.00;38.70;;;;;;6055982;29;20257;-72
2021/07/08 13:58:51;;;;;;;5.35;4.72;;;38.30;38.50;;;;;;6055687;29;20616;-70
2021/07/08 14:01:53;;;;;;;4.95;4.63;;;38.00;38.50;;;;;;6064655;29;20193;-72
2021/07/08 14:04:55;;;;;;;5.60;4.80;;;38.40;38.80;;;;;;6081632;29;20205;-71
2021/07/08 14:07:58;;;;;;;5.38;4.88;;;39.00;38.70;;;;;;6054892;29;20220;-70
2021/07/08 14:11:00;;;;;;;5.13;4.72;;;39.70;38.00;;;;;;6055986;29;20205;-71
2021/07/08 14:14:04;;;;;;;5.40;4.90;;;40.00;37.10;;;;;;6055327;29;20213;-70
2021/07/08 14:17:06;;;;;;;5.60;5.10;;;40.00;37.50;;;;;;6054855;29;20573;-70
2021/07/08 14:20:09;;;;;;;8.48;5.55;;;39.90;37.00;;;;;;6054162;29;20202;-71
2021/07/08 14:23:12;;;;;;;6.30;4.55;;;39.70;37.20;;;;;;6056049;29;20666;-70
2021/07/08 14:26:19;;;;;;;5.75;4.95;;;39.20;37.80;;;;;;6054331;29;20209;-73
2021/07/08 14:29:21;;;;;;;5.68;5.05;;;38.30;38.30;;;;;;6055236;29;20209;-71
2021/07/08 14:32:23;;;;;;;6.25;5.15;;;37.40;39.30;;;;;;6057542;29;20280;-70
2021/07/08 14:35:25;;;;;;;5.47;4.80;;;36.80;40.70;;;;;;6055014;29;20205;-70
2021/07/08 14:38:29;;;;;;;5.40;5.00;;;36.40;41.20;;;;;;6055441;29;20197;-70
2021/07/08 14:41:43;;;;;;;5.50;4.90;;;36.40;41.10;;;;;;6054878;29;20638;-71
2021/07/08 14:44:59;;;;;;;6.05;5.47;;;36.20;41.70;;;;;;6055121;29;20749;-70
2021/07/08 14:48:02;;;;;;;6.00;5.22;;;35.80;42.20;;;;;;6053942;29;20702;-70
2021/07/08 14:51:07;;;;;;;6.57;5.63;;;35.50;42.60;;;;;;6053541;29;20201;-71
2021/07/08 14:54:10;;;;;;;5.93;5.47;;;35.20;42.90;;;;;;6054881;29;20591;-70
2021/07/08 14:57:12;;;;;;;9.50;5.70;;;34.90;43.30;;;;;;6054585;29;20193;-70
2021/07/08 15:00:15;;;;;;;6.22;5.72;;;34.70;43.60;;;;;;6054987;29;20696;-70
2021/07/08 15:03:17;;;;;;;9.95;5.90;;;34.80;43.70;;;;;;6062774;29;20202;-70
2021/07/08 15:06:23;;;;;;;6.22;5.72;;;35.90;43.20;;;;;;6054640;29;20202;-70
2021/07/08 15:09:25;;;;;;;6.45;5.95;;;36.30;42.60;;;;;;6055025;29;20257;-69
2021/07/08 15:12:27;;;;;;;6.40;5.70;;;36.20;42.90;;;;;;6054362;29;20298;-69
2021/07/08 15:15:30;;;;;;;5.72;5.15;;;35.80;43.70;;;;;;6054789;29;20709;-70
2021/07/08 15:18:32;;;;;;;6.15;5.65;;;35.40;44.00;;;;;;6053280;29;20686;-70
2021/07/08 15:21:35;;;;;;;6.47;5.82;;;34.90;44.20;;;;;;6053630;29;20332;-69
2021/07/08 15:24:38;;;;;;;6.47;5.97;;;34.70;44.20;;;;;;6054543;29;20209;-70
2021/07/08 15:27:40;;;;;;;6.18;5.68;;;34.70;45.30;;;;;;6053986;29;20280;-70
2021/07/08 15:30:43;;;;;;;5.90;5.40;;;34.70;46.70;;;;;;6053166;29;20293;-70
2021/07/08 15:34:02;;;;;;;5.70;5.30;;;34.70;46.90;;;;;;6054926;29;20229;-70
2021/07/08 15:37:05;;;;;;;9.32;5.43;;;34.70;46.20;;;;;;6054943;29;20227;-70
2021/07/08 15:40:08;;;;;;;5.82;5.25;;;34.60;46.60;;;;;;6053040;29;20232;-70
2021/07/08 15:43:12;;;;;;;5.60;5.05;;;34.50;47.10;;;;;;6053913;29;20224;-70
2021/07/08 15:46:14;;;;;;;5.85;5.35;;;34.40;47.30;;;;;;6052900;29;20640;-70
2021/07/08 15:49:17;;;;;;;5.78;5.28;;;34.20;47.50;;;;;;6053580;29;20284;-70
2021/07/08 15:52:39;;;;;;;8.57;6.00;;;34.00;48.30;;;;;;6040452;29;20827;-70
2021/07/08 15:55:41;;;;;;;6.20;5.20;;;33.60;47.00;;;;;;6052399;29;20378;-70